createdAt,value
2019-03-03T00:00:46.787Z,48.50
2019-03-03T00:03:17.817Z,48.18
2019-03-03T00:05:49.840Z,48.74
2019-03-03T00:08:20.813Z,49.10
2019-03-03T00:10:51.779Z,49.52
2019-03-03T00:13:22.798Z,49.25
2019-03-03T00:15:53.770Z,49.58
2019-03-03T00:18:24.701Z,49.41
2019-03-03T00:21:12.502Z,49.43
2019-03-03T00:23:45.035Z,49.59
2019-03-03T00:26:15.919Z,49.35
2019-03-03T00:28:46.861Z,49.42
2019-03-03T00:31:18.851Z,49.54
2019-03-03T00:33:50.781Z,49.81
2019-03-03T00:36:21.888Z,50.10
2019-03-03T00:38:57.465Z,50.16
2019-03-03T00:41:39.202Z,50.42
2019-03-03T00:44:11.784Z,50.93
2019-03-03T00:46:44.335Z,51.00
2019-03-03T00:49:33.119Z,51.54
2019-03-03T00:52:05.672Z,51.53
2019-03-03T00:54:38.254Z,52.05
2019-03-03T00:57:10.839Z,52.68
2019-03-03T00:59:58.693Z,53.09
2019-03-03T01:02:37.235Z,53.40
2019-03-03T01:05:10.258Z,53.65
2019-03-03T01:07:42.884Z,53.75
2019-03-03T01:10:27.393Z,54.09
2019-03-03T01:13:01.041Z,54.47
2019-03-03T01:15:51.617Z,54.48
2019-03-03T01:18:39.224Z,54.16
2019-03-03T01:21:27.885Z,54.49
2019-03-03T01:24:03.360Z,54.68
2019-03-03T01:26:34.295Z,54.70
2019-03-03T01:29:06.834Z,54.74
2019-03-03T01:31:37.799Z,54.60
2019-03-03T01:34:09.630Z,54.95
2019-03-03T01:36:40.822Z,54.68
2019-03-03T01:39:11.782Z,54.87
2019-03-03T01:41:42.826Z,55.01
2019-03-03T01:44:13.771Z,54.88
2019-03-03T01:46:44.787Z,54.74
2019-03-03T01:49:15.775Z,54.80
2019-03-03T01:51:46.786Z,54.84
2019-03-03T01:54:17.706Z,54.96
2019-03-03T01:56:48.720Z,54.78
2019-03-03T01:59:19.707Z,54.91
2019-03-03T02:01:51.093Z,55.06
2019-03-03T02:04:22.177Z,55.31
2019-03-03T02:06:53.577Z,55.82
2019-03-03T02:09:24.663Z,55.68
2019-03-03T02:11:57.095Z,55.78
2019-03-03T02:14:28.540Z,55.93
2019-03-03T02:16:59.816Z,55.76
2019-03-03T02:19:31.130Z,56.04
2019-03-03T02:22:03.299Z,55.76
2019-03-03T02:24:34.230Z,55.89
2019-03-03T02:27:05.202Z,56.50
2019-03-03T02:29:36.113Z,56.67
2019-03-03T02:32:07.151Z,56.26
2019-03-03T02:34:38.880Z,56.51
2019-03-03T02:37:10.002Z,57.09
2019-03-03T02:39:40.909Z,56.33
2019-03-03T02:42:11.948Z,56.00
2019-03-03T02:44:42.892Z,55.81
2019-03-03T02:47:13.913Z,55.84
2019-03-03T02:49:44.864Z,55.67
2019-03-03T02:52:15.993Z,55.35
2019-03-03T02:54:46.951Z,55.29
2019-03-03T02:57:17.911Z,55.57
2019-03-03T02:59:48.918Z,55.61
2019-03-03T03:02:21.620Z,55.61
2019-03-03T03:04:52.495Z,55.40
2019-03-03T03:07:25.280Z,55.14
2019-03-03T03:10:00.982Z,54.85
2019-03-03T03:12:33.748Z,55.41
2019-03-03T03:15:07.287Z,55.28
2019-03-03T03:17:39.935Z,54.99
2019-03-03T03:20:28.777Z,55.71
2019-03-03T03:23:01.440Z,55.06
2019-03-03T03:25:43.182Z,54.63
2019-03-03T03:28:15.892Z,54.60
2019-03-03T03:30:48.452Z,54.70
2019-03-03T03:33:21.044Z,55.02
2019-03-03T03:36:12.526Z,55.29
2019-03-03T03:38:48.015Z,55.51
2019-03-03T03:41:23.681Z,55.98
2019-03-03T03:43:59.182Z,56.18
2019-03-03T03:46:48.080Z,56.37
2019-03-03T03:49:29.258Z,56.55
2019-03-03T03:52:07.821Z,56.92
2019-03-03T03:54:43.417Z,57.07
2019-03-03T03:57:21.735Z,57.23
2019-03-03T03:59:54.356Z,57.36
2019-03-03T04:02:43.291Z,57.31
2019-03-03T04:05:18.915Z,56.99
2019-03-03T04:07:51.508Z,57.11
2019-03-03T04:10:24.129Z,57.01
2019-03-03T04:12:56.679Z,56.97
2019-03-03T04:15:29.305Z,56.91
2019-03-03T04:18:01.874Z,57.08
2019-03-03T04:20:34.466Z,57.06
2019-03-03T04:23:16.097Z,57.31
2019-03-03T04:25:57.812Z,57.59
2019-03-03T04:28:33.338Z,57.87
2019-03-03T04:31:05.939Z,57.75
2019-03-03T04:33:38.478Z,57.99
2019-03-03T04:36:27.484Z,57.75
2019-03-03T04:39:15.104Z,57.54
2019-03-03T04:41:47.722Z,57.51
2019-03-03T04:44:20.274Z,57.64
2019-03-03T04:46:55.642Z,57.16
2019-03-03T04:49:44.569Z,57.25
2019-03-03T04:52:17.156Z,56.97
2019-03-03T04:54:58.836Z,57.03
2019-03-03T04:57:43.495Z,56.55
2019-03-03T05:00:21.871Z,56.55
2019-03-03T05:03:09.282Z,56.93
2019-03-03T05:05:50.679Z,57.38
2019-03-03T05:08:35.225Z,57.80
2019-03-03T05:11:07.865Z,58.02
2019-03-03T05:13:43.386Z,57.52
2019-03-03T05:16:34.449Z,57.34
2019-03-03T05:19:07.025Z,57.60
2019-03-03T05:21:38.028Z,57.63
2019-03-03T05:24:08.959Z,57.21
2019-03-03T05:26:39.867Z,57.08
2019-03-03T05:29:10.836Z,57.13
2019-03-03T05:31:41.798Z,56.25
2019-03-03T05:34:12.726Z,56.01
2019-03-03T05:36:44.466Z,55.95
2019-03-03T05:39:15.480Z,55.44
2019-03-03T05:41:46.487Z,55.57
2019-03-03T05:44:17.468Z,55.57
2019-03-03T05:46:48.557Z,55.53
2019-03-03T05:49:20.594Z,55.26
2019-03-03T05:51:51.712Z,54.94
2019-03-03T05:54:22.819Z,54.83
2019-03-03T05:56:54.787Z,54.46
2019-03-03T05:59:25.748Z,54.21
2019-03-03T06:01:56.677Z,54.24
2019-03-03T06:04:27.635Z,53.96
2019-03-03T06:06:58.634Z,53.69
2019-03-03T06:09:29.680Z,53.32
2019-03-03T06:12:00.616Z,53.07
2019-03-03T06:14:31.680Z,53.56
2019-03-03T06:17:02.612Z,52.95
2019-03-03T06:19:33.563Z,52.64
2019-03-03T06:22:04.624Z,52.31
2019-03-03T06:24:35.602Z,51.94
2019-03-03T06:27:06.517Z,51.26
2019-03-03T06:29:37.465Z,51.01
2019-03-03T06:32:08.414Z,50.91
2019-03-03T06:34:39.450Z,50.70
2019-03-03T06:37:11.254Z,50.78
2019-03-03T06:39:42.332Z,50.43
2019-03-03T06:42:13.261Z,50.22
2019-03-03T06:44:44.229Z,50.08
2019-03-03T06:47:15.151Z,49.57
2019-03-03T06:49:46.337Z,49.55
2019-03-03T06:52:18.385Z,48.93
2019-03-03T06:54:49.475Z,48.90
2019-03-03T06:57:20.409Z,48.36
2019-03-03T06:59:51.392Z,48.44
2019-03-03T07:02:22.330Z,48.44
2019-03-03T07:04:53.286Z,47.65
2019-03-03T07:07:24.201Z,46.97
2019-03-03T07:09:55.169Z,46.45
2019-03-03T07:12:26.243Z,46.33
2019-03-03T07:14:57.197Z,46.09
2019-03-03T07:17:28.184Z,46.23
2019-03-03T07:20:00.318Z,45.81
2019-03-03T07:22:31.352Z,45.88
2019-03-03T07:25:02.338Z,45.90
2019-03-03T07:27:33.414Z,45.43
2019-03-03T07:30:06.441Z,45.28
2019-03-03T07:32:39.113Z,45.16
2019-03-03T07:35:10.246Z,44.89
2019-03-03T07:37:42.338Z,44.33
2019-03-03T07:40:13.479Z,44.27
2019-03-03T07:42:44.413Z,44.30
2019-03-03T07:45:15.830Z,43.89
2019-03-03T07:47:46.968Z,43.51
2019-03-03T07:50:17.927Z,43.66
2019-03-03T07:52:48.865Z,43.28
2019-03-03T07:55:20.027Z,43.74
2019-03-03T07:57:50.959Z,43.92
2019-03-03T08:00:21.931Z,44.03
2019-03-03T08:02:52.876Z,44.04
2019-03-03T08:05:23.829Z,43.81
2019-03-03T08:07:54.854Z,43.85
2019-03-03T08:10:25.873Z,42.65
2019-03-03T08:12:56.916Z,42.68
2019-03-03T08:15:28.081Z,41.89
2019-03-03T08:17:59.185Z,41.99
2019-03-03T08:20:30.150Z,41.71
2019-03-03T08:23:01.057Z,41.60
2019-03-03T08:25:32.088Z,41.83
2019-03-03T08:28:03.068Z,41.70
2019-03-03T08:30:34.226Z,42.34
2019-03-03T08:33:05.319Z,42.30
2019-03-03T08:35:36.316Z,42.59
2019-03-03T08:38:08.037Z,43.04
2019-03-03T08:40:39.215Z,43.48
2019-03-03T08:43:17.524Z,43.87
2019-03-03T08:46:02.072Z,43.75
2019-03-03T08:48:34.773Z,43.60
2019-03-03T08:51:19.415Z,43.60
2019-03-03T08:53:55.015Z,44.90
2019-03-03T08:56:45.642Z,44.58
2019-03-03T08:59:18.344Z,44.90
2019-03-03T09:01:56.590Z,43.58
2019-03-03T09:04:45.942Z,43.65
2019-03-03T09:07:35.315Z,43.30
2019-03-03T09:10:25.239Z,43.68
2019-03-03T09:12:52.474Z,44.47
2019-03-03T09:15:27.781Z,43.60
2019-03-03T09:18:00.577Z,43.54
2019-03-03T09:20:58.419Z,43.21
2019-03-03T09:23:36.779Z,44.13
2019-03-03T09:26:11.999Z,44.11
2019-03-03T09:28:47.235Z,43.42
2019-03-03T09:31:25.870Z,43.41
2019-03-03T09:34:14.761Z,43.23
2019-03-03T09:36:50.225Z,43.22
2019-03-03T09:39:25.384Z,43.04
2019-03-03T09:42:14.672Z,42.84
2019-03-03T09:44:47.273Z,42.58
2019-03-03T09:47:25.892Z,42.62
2019-03-03T09:50:16.796Z,41.85
2019-03-03T09:52:49.345Z,42.76
2019-03-03T09:55:33.764Z,43.29
2019-03-03T09:58:18.046Z,43.25
2019-03-03T10:01:05.950Z,43.48
2019-03-03T10:03:41.053Z,43.63
2019-03-03T10:06:13.571Z,43.57
2019-03-03T10:08:55.089Z,43.41
2019-03-03T10:11:45.157Z,42.63
2019-03-03T10:14:17.734Z,41.97
2019-03-03T10:16:50.309Z,41.19
2019-03-03T10:19:28.831Z,42.28
2019-03-03T10:22:01.548Z,42.71
2019-03-03T10:24:40.373Z,42.00
2019-03-03T10:27:13.155Z,41.72
2019-03-03T10:29:52.047Z,41.99
2019-03-03T10:32:24.663Z,42.23
2019-03-03T10:34:57.221Z,42.76
2019-03-03T10:37:29.829Z,42.45
2019-03-03T10:40:03.425Z,42.45
2019-03-03T10:42:44.296Z,43.85
2019-03-03T10:45:19.614Z,42.33
2019-03-03T10:47:52.325Z,42.80
2019-03-03T10:50:43.312Z,43.36
2019-03-03T10:53:22.048Z,43.51
2019-03-03T10:55:54.589Z,43.51
2019-03-03T10:58:39.532Z,42.70
2019-03-03T11:01:25.322Z,42.88
2019-03-03T11:03:58.226Z,41.66
2019-03-03T11:06:30.758Z,41.57
2019-03-03T11:09:09.251Z,41.19
2019-03-03T11:11:41.980Z,41.01
2019-03-03T11:14:25.063Z,40.54
2019-03-03T11:16:58.571Z,40.61
2019-03-03T11:19:43.789Z,40.18
2019-03-03T11:22:19.097Z,41.07
2019-03-03T11:25:00.513Z,41.18
2019-03-03T11:27:42.253Z,41.79
2019-03-03T11:30:33.155Z,41.92
2019-03-03T11:33:22.459Z,41.31
2019-03-03T11:36:11.298Z,41.02
2019-03-03T11:39:00.614Z,41.33
2019-03-03T11:41:35.686Z,41.08
2019-03-03T11:44:08.547Z,40.64
2019-03-03T11:46:43.871Z,41.27
2019-03-03T11:49:22.318Z,41.16
2019-03-03T11:52:13.133Z,40.46
2019-03-03T11:54:57.397Z,40.82
2019-03-03T11:57:33.050Z,40.90
2019-03-03T12:00:17.888Z,41.30
2019-03-03T12:02:59.662Z,40.99
2019-03-03T12:05:32.345Z,41.15
2019-03-03T12:08:05.038Z,40.38
2019-03-03T12:10:40.445Z,40.04
2019-03-03T12:13:14.544Z,40.57
2019-03-03T12:15:53.206Z,39.69
2019-03-03T12:18:40.535Z,39.59
2019-03-03T12:21:15.914Z,39.30
2019-03-03T12:23:48.508Z,39.64
2019-03-03T12:26:36.448Z,39.39
2019-03-03T12:29:25.290Z,38.99
2019-03-03T12:32:03.696Z,38.65
2019-03-03T12:34:39.119Z,38.83
2019-03-03T12:37:27.918Z,38.58
2019-03-03T12:40:09.485Z,38.89
2019-03-03T12:42:59.251Z,39.02
2019-03-03T12:45:47.057Z,38.80
2019-03-03T12:48:29.043Z,39.01
2019-03-03T12:51:01.667Z,38.85
2019-03-03T12:53:37.100Z,38.62
2019-03-03T12:56:12.828Z,38.16
2019-03-03T12:59:01.397Z,38.45
2019-03-03T13:01:34.016Z,38.43
2019-03-03T13:04:12.474Z,38.94
2019-03-03T13:06:45.215Z,38.97
2019-03-03T13:09:17.920Z,39.26
2019-03-03T13:12:06.734Z,38.76
2019-03-03T13:14:39.354Z,38.62
2019-03-03T13:17:11.952Z,37.68
2019-03-03T13:19:44.495Z,37.68
2019-03-03T13:22:17.102Z,37.82
2019-03-03T13:25:05.762Z,38.28
2019-03-03T13:27:38.417Z,38.68
2019-03-03T13:30:31.637Z,38.58
2019-03-03T13:33:20.482Z,38.97
2019-03-03T13:35:53.135Z,38.61
2019-03-03T13:38:25.804Z,38.72
2019-03-03T13:41:01.298Z,38.20
2019-03-03T13:43:34.366Z,38.01
2019-03-03T13:46:05.551Z,38.42
2019-03-03T13:48:36.492Z,38.21
2019-03-03T13:51:07.453Z,38.09
2019-03-03T13:53:38.581Z,38.46
2019-03-03T13:56:09.622Z,38.27
2019-03-03T13:58:40.676Z,38.82
2019-03-03T14:01:11.570Z,38.76
2019-03-03T14:03:42.580Z,39.00
2019-03-03T14:06:13.491Z,39.23
2019-03-03T14:08:44.455Z,39.25
2019-03-03T14:11:15.458Z,41.47
2019-03-03T14:13:46.463Z,39.12
2019-03-03T14:16:17.458Z,39.63
2019-03-03T14:18:48.409Z,40.43
2019-03-03T14:21:19.404Z,43.32
2019-03-03T14:23:50.368Z,39.40
2019-03-03T14:26:21.153Z,39.61
2019-03-03T14:28:51.967Z,39.81
2019-03-03T14:31:22.773Z,40.01
2019-03-03T14:33:53.622Z,39.83
2019-03-03T14:36:24.455Z,40.12
2019-03-03T14:38:55.369Z,40.53
2019-03-03T14:41:26.207Z,40.76
2019-03-03T14:43:58.043Z,40.77
2019-03-03T14:46:29.095Z,40.12
2019-03-03T14:48:59.928Z,39.88
2019-03-03T14:51:30.769Z,40.71
2019-03-03T14:54:01.630Z,40.07
2019-03-03T14:56:32.431Z,39.75
2019-03-03T14:59:03.351Z,39.86
2019-03-03T15:01:34.354Z,39.96
2019-03-03T15:04:05.519Z,40.96
2019-03-03T15:06:36.613Z,40.37
2019-03-03T15:09:09.304Z,40.53
2019-03-03T15:11:40.514Z,42.00
2019-03-03T15:14:11.668Z,40.76
2019-03-03T15:16:42.477Z,40.78
2019-03-03T15:19:33.092Z,40.65
2019-03-03T15:22:04.270Z,40.60
2019-03-03T15:24:35.415Z,40.60
2019-03-03T15:27:06.524Z,41.33
2019-03-03T15:29:37.495Z,41.10
2019-03-03T15:32:08.505Z,41.18
2019-03-03T15:34:40.693Z,41.53
2019-03-03T15:37:13.567Z,41.58
2019-03-03T15:39:44.530Z,41.54
2019-03-03T15:42:15.377Z,41.54
2019-03-03T15:44:47.168Z,41.63
2019-03-03T15:47:18.232Z,41.63
2019-03-03T15:49:49.115Z,41.87
2019-03-03T15:52:20.049Z,41.88
2019-03-03T15:54:50.946Z,41.93
2019-03-03T15:57:21.767Z,42.07
2019-03-03T15:59:52.669Z,42.36
2019-03-03T16:02:23.559Z,42.42
2019-03-03T16:04:54.407Z,42.39
2019-03-03T16:07:25.336Z,42.51
2019-03-03T16:09:56.189Z,42.54
2019-03-03T16:12:27.087Z,42.33
2019-03-03T16:14:58.026Z,42.57
2019-03-03T16:17:28.840Z,42.46
2019-03-03T16:20:00.846Z,42.49
2019-03-03T16:22:32.894Z,42.64
2019-03-03T16:25:04.351Z,42.75
2019-03-03T16:27:35.258Z,42.79
2019-03-03T16:30:14.452Z,42.87
2019-03-03T16:32:45.384Z,42.98
2019-03-03T16:35:16.398Z,43.11
2019-03-03T16:37:47.260Z,43.23
2019-03-03T16:40:24.992Z,43.36
2019-03-03T16:42:55.862Z,43.22
2019-03-03T16:45:27.544Z,43.21
2019-03-03T16:47:58.449Z,43.23
2019-03-03T16:50:32.801Z,43.39
2019-03-03T16:53:03.624Z,43.71
2019-03-03T16:55:34.529Z,44.06
2019-03-03T16:58:05.403Z,44.01
2019-03-03T17:00:38.246Z,44.49
2019-03-03T17:03:09.050Z,44.49
2019-03-03T17:05:39.890Z,44.77
2019-03-03T17:08:10.762Z,44.78
2019-03-03T17:10:41.708Z,45.14
2019-03-03T17:13:13.871Z,45.35
2019-03-03T17:15:44.690Z,45.59
2019-03-03T17:18:15.612Z,45.57
2019-03-03T17:20:46.945Z,45.75
2019-03-03T17:23:17.869Z,45.90
2019-03-03T17:25:48.713Z,46.04
2019-03-03T17:28:19.535Z,46.24
2019-03-03T17:30:50.531Z,46.43
2019-03-03T17:33:21.436Z,46.42
2019-03-03T17:35:52.581Z,46.52
2019-03-03T17:38:23.472Z,46.77
2019-03-03T17:40:54.307Z,46.88
2019-03-03T17:43:25.624Z,47.01
2019-03-03T17:45:57.480Z,47.21
2019-03-03T17:48:28.904Z,47.27
2019-03-03T17:50:59.809Z,47.32
2019-03-03T17:53:30.645Z,47.39
2019-03-03T17:56:01.495Z,47.55
2019-03-03T17:58:32.449Z,47.43
2019-03-03T18:01:03.367Z,47.49
2019-03-03T18:03:34.320Z,47.76
2019-03-03T18:06:06.750Z,47.70
2019-03-03T18:08:37.538Z,47.86
2019-03-03T18:11:08.656Z,47.93
2019-03-03T18:13:39.607Z,48.00
2019-03-03T18:16:11.349Z,48.10
2019-03-03T18:18:42.249Z,48.09
2019-03-03T18:21:13.100Z,48.32
2019-03-03T18:23:43.938Z,48.66
2019-03-03T18:26:14.776Z,48.72
2019-03-03T18:28:45.648Z,48.89
2019-03-03T18:31:16.568Z,48.93
2019-03-03T18:33:47.454Z,49.03
2019-03-03T18:36:18.570Z,49.27
2019-03-03T18:38:51.179Z,49.59
2019-03-03T18:41:22.223Z,49.64
2019-03-03T18:43:53.148Z,49.74
2019-03-03T18:46:25.965Z,49.90
2019-03-03T18:48:57.493Z,50.09
2019-03-03T18:51:28.353Z,50.15
2019-03-03T18:53:59.201Z,50.24
2019-03-03T18:56:30.091Z,50.27
2019-03-03T18:59:01.088Z,50.48
2019-03-03T19:01:33.132Z,50.62
2019-03-03T19:04:04.053Z,50.69
2019-03-03T19:06:35.203Z,50.88
2019-03-03T19:09:07.204Z,50.83
2019-03-03T19:11:39.916Z,51.01
2019-03-03T19:14:13.513Z,51.02
2019-03-03T19:16:45.137Z,51.19
2019-03-03T19:19:17.580Z,51.05
2019-03-03T19:21:48.903Z,51.42
2019-03-03T19:24:20.235Z,51.40
2019-03-03T19:26:51.308Z,51.34
2019-03-03T19:29:23.459Z,51.47
2019-03-03T19:31:57.446Z,51.51
2019-03-03T19:34:30.725Z,51.62
2019-03-03T19:37:02.099Z,51.73
2019-03-03T19:39:33.406Z,51.74
2019-03-03T19:42:04.438Z,51.66
2019-03-03T19:44:35.252Z,51.80
2019-03-03T19:47:08.606Z,51.86
2019-03-03T19:49:39.767Z,51.92
2019-03-03T19:52:10.712Z,51.96
2019-03-03T19:54:41.658Z,52.05
2019-03-03T19:57:12.589Z,52.05
2019-03-03T19:59:43.561Z,51.95
2019-03-03T20:02:15.980Z,52.15
2019-03-03T20:04:46.984Z,52.20
2019-03-03T20:07:17.835Z,52.19
2019-03-03T20:09:49.366Z,52.18
2019-03-03T20:12:21.389Z,52.27
2019-03-03T20:14:53.377Z,52.23
2019-03-03T20:17:24.414Z,52.27
2019-03-03T20:19:55.343Z,52.44
2019-03-03T20:22:26.293Z,52.25
2019-03-03T20:24:58.167Z,52.28
2019-03-03T20:27:29.097Z,52.45
2019-03-03T20:30:03.919Z,52.10
2019-03-03T20:32:34.271Z,52.05
2019-03-03T20:35:07.812Z,52.23
2019-03-03T20:37:39.499Z,52.02
2019-03-03T20:40:15.590Z,52.02
2019-03-03T20:42:46.696Z,52.03
2019-03-03T20:45:33.784Z,51.85
2019-03-03T20:48:05.603Z,51.89
2019-03-03T20:50:36.469Z,51.71
2019-03-03T20:53:07.322Z,51.83
2019-03-03T20:55:38.217Z,51.83
2019-03-03T20:58:09.128Z,51.98
2019-03-03T21:00:39.942Z,52.35
2019-03-03T21:03:10.790Z,52.38
2019-03-03T21:05:41.617Z,52.41
2019-03-03T21:08:12.573Z,52.70
2019-03-03T21:10:45.323Z,52.77
2019-03-03T21:13:16.439Z,52.90
2019-03-03T21:15:47.568Z,52.84
2019-03-03T21:18:18.551Z,52.62
2019-03-03T21:20:49.383Z,52.74
2019-03-03T21:23:20.319Z,52.72
2019-03-03T21:26:07.671Z,52.49
2019-03-03T21:29:08.305Z,52.37
2019-03-03T21:31:39.613Z,52.32
2019-03-03T21:34:10.640Z,52.51
2019-03-03T21:36:42.947Z,52.31
2019-03-03T21:39:13.894Z,52.31
2019-03-03T21:41:44.775Z,52.16
2019-03-03T21:44:15.753Z,52.12
2019-03-03T21:46:46.999Z,52.13
2019-03-03T21:49:18.844Z,51.90
2019-03-03T21:51:49.865Z,52.09
2019-03-03T21:54:20.837Z,52.18
2019-03-03T21:56:51.658Z,52.38
2019-03-03T21:59:22.538Z,52.50
2019-03-03T22:01:54.331Z,52.46
2019-03-03T22:04:25.346Z,52.59
2019-03-03T22:06:56.182Z,52.62
2019-03-03T22:09:49.488Z,52.87
2019-03-03T22:12:29.587Z,52.56
2019-03-03T22:15:22.995Z,52.83
2019-03-03T22:17:54.181Z,52.53
2019-03-03T22:20:25.416Z,52.55
2019-03-03T22:22:56.503Z,52.54
2019-03-03T22:25:27.371Z,52.15
2019-03-03T22:27:58.155Z,52.04
2019-03-03T22:30:29.081Z,52.27
2019-03-03T22:32:59.915Z,52.47
2019-03-03T22:35:30.743Z,52.13
2019-03-03T22:38:01.623Z,52.38
2019-03-03T22:40:32.477Z,52.40
2019-03-03T22:43:03.281Z,52.61
2019-03-03T22:45:34.144Z,52.58
2019-03-03T22:48:04.951Z,52.57
2019-03-03T22:50:35.827Z,52.66
2019-03-03T22:53:06.674Z,52.66
2019-03-03T22:55:37.534Z,52.78
2019-03-03T22:58:08.393Z,52.81
2019-03-03T23:01:00.803Z,52.70
2019-03-03T23:03:56.615Z,52.51
2019-03-03T23:06:30.804Z,52.75
2019-03-03T23:09:10.467Z,52.62
2019-03-03T23:12:19.461Z,52.64
2019-03-03T23:15:11.982Z,52.55
2019-03-03T23:18:00.473Z,52.76
2019-03-03T23:20:43.655Z,52.60
2019-03-03T23:23:34.269Z,52.43
2019-03-03T23:26:05.078Z,52.37
2019-03-03T23:28:36.042Z,52.42
2019-03-03T23:31:06.942Z,52.43
2019-03-03T23:33:37.988Z,52.28
2019-03-03T23:36:08.828Z,52.06
2019-03-03T23:38:39.723Z,52.18
2019-03-03T23:41:10.577Z,52.19
2019-03-03T23:43:41.488Z,51.83
2019-03-03T23:46:12.286Z,51.60
2019-03-03T23:48:43.142Z,51.21
2019-03-03T23:51:14.775Z,50.82
2019-03-03T23:53:45.762Z,51.53
2019-03-03T23:56:16.595Z,51.54
2019-03-03T23:58:47.431Z,51.71
